Time;durP1;ratioP1;P1;durP2;ratioP2;P2;SDS_P1;SDS_P2;PMS_P1;PMS_P2;Temp;Humidity;BMP_temperature;BMP_pressure;BME280_temperature;BME280_humidity;BME280_pressure;Samples;Min_cycle;Max_cycle;Signal;HPM_P1;HPM_P2
2023/04/06 00:02:01;;;;;;;0.70;0.70;;;;;;;3.94;77.41;99854.44;4971590;28;20516;-81
2023/04/06 00:04:28;;;;;;;0.80;0.80;;;;;;;3.93;77.21;99850.13;4971510;28;20231;-81
2023/04/06 00:06:56;;;;;;;0.80;0.80;;;;;;;3.92;77.28;99845.78;4953941;28;20047;-82
2023/04/06 00:09:23;;;;;;;0.80;0.80;;;;;;;3.91;77.19;99846.78;4940954;28;20047;-81
2023/04/06 00:11:50;;;;;;;0.75;0.75;;;;;;;3.91;77.24;99847.63;4952296;29;20411;-83
2023/04/06 00:14:17;;;;;;;0.70;0.70;;;;;;;3.88;77.14;99842.66;4952143;29;20078;-82
2023/04/06 00:17:03;;;;;;;0.70;0.70;;;;;;;3.87;77.25;99851.69;4935169;29;20047;-82
2023/04/06 00:19:31;;;;;;;0.70;0.70;;;;;;;3.86;77.46;99857.19;4934940;29;20052;-81
2023/04/06 00:21:58;;;;;;;0.70;0.70;;;;;;;3.86;77.41;99850.00;4952415;29;20586;-82
2023/04/06 00:24:25;;;;;;;0.65;0.65;;;;;;;3.89;77.04;99841.63;4934887;29;20047;-82
2023/04/06 00:26:53;;;;;;;0.80;0.80;;;;;;;3.84;77.41;99841.34;4952282;29;20456;-82
2023/04/06 00:29:20;;;;;;;0.80;0.80;;;;;;;3.85;77.25;99850.19;4950995;29;20058;-82
2023/04/06 00:31:47;;;;;;;0.70;0.70;;;;;;;3.80;77.24;99852.53;4935046;29;20348;-82
2023/04/06 00:34:15;;;;;;;0.70;0.70;;;;;;;3.81;77.30;99847.03;4934786;29;20106;-82
2023/04/06 00:36:42;;;;;;;0.70;0.70;;;;;;;3.82;77.53;99845.19;4952201;29;20074;-81
2023/04/06 00:39:10;;;;;;;0.80;0.80;;;;;;;3.82;77.32;99848.72;4953122;28;20063;-81
2023/04/06 00:41:39;;;;;;;0.80;0.80;;;;;;;3.80;77.25;99844.53;4955869;29;20082;-82
2023/04/06 00:44:06;;;;;;;0.80;0.80;;;;;;;3.77;77.48;99850.25;4939242;29;20139;-82
2023/04/06 00:46:34;;;;;;;0.70;0.70;;;;;;;3.77;77.40;99843.06;4938472;29;20533;-82
2023/04/06 00:49:01;;;;;;;0.80;0.80;;;;;;;3.79;77.32;99846.38;4939661;28;20062;-82
2023/04/06 00:51:28;;;;;;;0.80;0.80;;;;;;;3.78;77.43;99842.06;4957564;28;20046;-82
2023/04/06 00:53:56;;;;;;;0.80;0.80;;;;;;;3.78;77.38;99842.06;4958238;28;20050;-82
2023/04/06 00:56:23;;;;;;;0.70;0.70;;;;;;;3.72;77.55;99844.59;4941622;28;20089;-82
2023/04/06 00:58:52;;;;;;;0.80;0.80;;;;;;;3.68;77.82;99853.00;4959236;28;20054;-81
2023/04/06 01:01:19;;;;;;;0.80;0.80;;;;;;;3.65;77.81;99837.34;4962216;28;20046;-81
2023/04/06 01:03:50;;;;;;;0.73;0.73;;;;;;;3.61;78.05;99829.84;4963818;28;20502;-81
2023/04/06 01:06:19;;;;;;;0.80;0.80;;;;;;;3.58;78.27;99825.72;4974512;28;20058;-81
2023/04/06 01:08:55;;;;;;;0.65;0.65;;;;;;;3.61;78.07;99829.84;4955537;28;20051;-82
2023/04/06 01:11:25;;;;;;;0.80;0.80;;;;;;;3.57;78.31;99836.56;4922091;29;20065;-82
2023/04/06 01:13:53;;;;;;;0.80;0.80;;;;;;;3.55;78.21;99833.25;4938763;29;20047;-82
2023/04/06 01:16:43;;;;;;;0.73;0.73;;;;;;;3.45;78.78;99831.66;4953869;29;20405;-82
2023/04/06 01:19:16;;;;;;;0.80;0.80;;;;;;;3.45;78.85;99839.66;4937869;29;20051;-80
2023/04/06 01:21:50;;;;;;;0.70;0.70;;;;;;;3.44;79.08;99829.13;4955293;29;20520;-81
2023/04/06 01:24:43;;;;;;;;;;;;;;;3.38;78.97;99833.34;4952449;29;20514;-81
2023/04/06 01:27:15;;;;;;;0.75;0.75;;;;;;;3.30;79.33;99833.41;4937160;29;19997;-82
2023/04/06 01:29:47;;;;;;;0.80;0.80;;;;;;;3.26;79.51;99832.09;4937387;29;20145;-81
2023/04/06 01:32:24;;;;;;;0.82;0.82;;;;;;;3.25;79.66;99833.94;4938448;29;20545;-82
2023/04/06 01:34:52;;;;;;;0.80;0.80;;;;;;;3.22;80.07;99830.81;4938457;29;20414;-81
2023/04/06 01:37:20;;;;;;;0.70;0.70;;;;;;;3.21;80.09;99823.81;4938258;29;20046;-80
2023/04/06 01:39:47;;;;;;;0.80;0.80;;;;;;;3.18;80.29;99832.16;4955427;29;20510;-82
2023/04/06 01:42:24;;;;;;;0.80;0.80;;;;;;;3.14;80.64;99823.69;4948206;28;20110;-82
2023/04/06 01:44:51;;;;;;;0.70;0.70;;;;;;;3.12;80.63;99831.03;4973439;28;20051;-82
2023/04/06 01:47:18;;;;;;;0.73;0.73;;;;;;;3.08;80.60;99831.56;4955639;28;20134;-82
2023/04/06 01:49:47;;;;;;;0.82;0.82;;;;;;;3.09;80.97;99831.41;4956012;28;20138;-81
2023/04/06 01:52:15;;;;;;;0.80;0.80;;;;;;;3.03;81.08;99824.91;4955873;28;20051;-82
2023/04/06 01:54:50;;;;;;;0.80;0.80;;;;;;;3.01;81.31;99831.41;4940366;28;20055;-82
2023/04/06 01:57:34;;;;;;;0.80;0.80;;;;;;;2.91;81.33;99839.66;4955799;28;20054;-81
2023/04/06 02:00:11;;;;;;;0.73;0.73;;;;;;;2.88;81.66;99840.00;4956072;28;20051;-81
2023/04/06 02:02:46;;;;;;;0.80;0.80;;;;;;;2.85;81.96;99845.69;4955996;28;20055;-82
2023/04/06 02:05:20;;;;;;;0.80;0.80;;;;;;;2.79;81.97;99843.72;4955734;28;20521;-80
2023/04/06 02:07:49;;;;;;;0.80;0.80;;;;;;;2.75;82.36;99848.53;4956080;28;20417;-82
2023/04/06 02:10:21;;;;;;;0.90;0.90;;;;;;;2.80;82.54;99848.03;4953069;29;20044;-81
2023/04/06 02:12:48;;;;;;;0.70;0.70;;;;;;;2.81;82.48;99850.53;4937353;29;20083;-82
2023/04/06 02:15:22;;;;;;;0.90;0.90;;;;;;;2.76;82.46;99857.38;4921577;29;20457;-81
2023/04/06 02:17:49;;;;;;;0.80;0.80;;;;;;;2.69;82.80;99848.44;4937132;29;20102;-82
2023/04/06 02:20:16;;;;;;;0.80;0.80;;;;;;;2.69;82.85;99859.91;4954364;29;20062;-81
2023/04/06 02:22:43;;;;;;;0.80;0.80;;;;;;;2.73;83.14;99857.72;4936880;29;20130;-82
2023/04/06 02:25:11;;;;;;;0.80;0.80;;;;;;;2.76;82.89;99860.03;4953799;29;20054;-82
2023/04/06 02:27:38;;;;;;;0.60;0.60;;;;;;;2.73;82.65;99866.53;4936572;29;20091;-81
2023/04/06 02:30:06;;;;;;;0.90;0.90;;;;;;;2.70;83.01;99874.06;4920745;29;20138;-81
2023/04/06 02:32:33;;;;;;;0.80;0.80;;;;;;;2.69;83.20;99873.25;4936012;29;20058;-81
2023/04/06 02:35:00;;;;;;;0.80;0.80;;;;;;;2.70;83.06;99874.88;4936065;29;20043;-81
2023/04/06 02:37:29;;;;;;;0.70;0.70;;;;;;;2.68;82.91;99873.41;4920374;29;20519;-81
2023/04/06 02:39:58;;;;;;;0.80;0.80;;;;;;;2.63;83.23;99875.75;4936117;29;20086;-82
2023/04/06 02:42:26;;;;;;;0.85;0.85;;;;;;;2.66;83.21;99878.91;4943749;28;20067;-82
2023/04/06 02:44:53;;;;;;;0.80;0.80;;;;;;;2.69;83.09;99872.41;4973089;28;20081;-82
2023/04/06 02:47:23;;;;;;;0.90;0.90;;;;;;;2.67;83.10;99879.75;4955487;28;20059;-81
2023/04/06 02:49:51;;;;;;;0.88;0.88;;;;;;;2.67;83.09;99883.25;4955675;28;20050;-83
2023/04/06 02:52:18;;;;;;;0.70;0.70;;;;;;;2.63;83.02;99884.56;4955657;28;20057;-82
2023/04/06 02:54:46;;;;;;;0.80;0.80;;;;;;;2.66;83.14;99886.91;4973013;28;20078;-82
2023/04/06 02:57:19;;;;;;;0.80;0.80;;;;;;;2.65;83.06;99892.41;4936220;29;20529;-81
2023/04/06 02:59:46;;;;;;;0.80;0.80;;;;;;;2.70;82.90;99892.72;4920748;29;20103;-81
2023/04/06 03:02:29;;;;;;;0.80;0.80;;;;;;;2.74;82.76;99886.06;4935668;29;20050;-81
2023/04/06 03:05:06;;;;;;;0.70;0.70;;;;;;;2.76;82.61;99900.03;4953859;29;20366;-81
2023/04/06 03:07:37;;;;;;;0.70;0.70;;;;;;;2.77;82.62;99894.53;4936444;29;20051;-82
2023/04/06 03:10:09;;;;;;;0.90;0.90;;;;;;;2.81;82.50;99892.34;4947817;28;20073;-81
2023/04/06 03:12:36;;;;;;;0.80;0.80;;;;;;;2.81;82.33;99897.66;4974187;28;20063;-83
2023/04/06 03:15:19;;;;;;;0.90;0.90;;;;;;;2.85;82.23;99888.34;4961505;28;20046;-83
2023/04/06 03:17:50;;;;;;;0.70;0.70;;;;;;;2.85;82.09;99891.00;4973130;28;20567;-83
2023/04/06 03:20:44;;;;;;;0.88;0.88;;;;;;;2.94;81.60;99894.47;4951482;28;20529;-82
2023/04/06 03:23:15;;;;;;;0.90;0.90;;;;;;;3.00;81.38;99899.94;4955188;28;20517;-82
2023/04/06 03:25:44;;;;;;;0.90;0.90;;;;;;;3.04;81.16;99903.94;4955885;28;20042;-83
2023/04/06 03:28:18;;;;;;;0.80;0.80;;;;;;;3.06;81.17;99894.91;4972326;28;20039;-82
2023/04/06 03:30:53;;;;;;;0.85;0.85;;;;;;;3.03;80.93;99896.91;4955265;28;20054;-83
2023/04/06 03:33:55;;;;;;;0.90;0.90;;;;;;;2.98;81.00;99899.25;4912461;29;20060;-82
2023/04/06 03:36:27;;;;;;;0.90;0.90;;;;;;;2.96;81.11;99911.97;4880795;29;20396;-83
2023/04/06 03:38:56;;;;;;;0.88;0.88;;;;;;;2.98;81.06;99901.09;4921932;29;20450;-81
2023/04/06 03:41:33;;;;;;;0.90;0.90;;;;;;;2.98;81.05;99903.78;4915483;29;20060;-82
2023/04/06 03:44:14;;;;;;;0.70;0.70;;;;;;;3.01;80.94;99908.75;4914201;29;20442;-83
2023/04/06 03:46:43;;;;;;;0.90;0.90;;;;;;;3.04;80.68;99905.78;4928272;29;20135;-84
2023/04/06 03:49:10;;;;;;;0.90;0.90;;;;;;;3.06;80.58;99902.91;4897029;29;20849;-82
2023/04/06 03:51:40;;;;;;;0.80;0.80;;;;;;;3.06;80.35;99903.72;4881470;29;20600;-83
2023/04/06 03:54:07;;;;;;;0.77;0.77;;;;;;;3.12;80.08;99915.56;4912238;29;20081;-80
2023/04/06 03:56:38;;;;;;;0.80;0.80;;;;;;;3.15;79.96;99912.53;4891167;29;20502;-80
2023/04/06 03:59:37;;;;;;;0.87;0.87;;;;;;;3.17;79.96;99913.22;4977433;23;10000522;-82
2023/04/06 04:02:05;;;;;;;0.70;0.70;;;;;;;3.18;79.86;99915.69;4873384;29;20068;-79
2023/04/06 04:04:32;;;;;;;0.85;0.85;;;;;;;3.22;79.56;99911.66;4874509;29;20057;-80
2023/04/06 04:07:00;;;;;;;0.90;0.90;;;;;;;3.29;79.30;99924.31;4886972;29;20068;-80
2023/04/06 04:09:28;;;;;;;0.80;0.80;;;;;;;3.33;78.93;99918.44;4865075;29;20113;-79
2023/04/06 04:11:55;;;;;;;0.80;0.80;;;;;;;3.39;78.78;99924.91;4864963;29;20408;-82
2023/04/06 04:14:25;;;;;;;0.80;0.80;;;;;;;3.43;78.51;99924.38;4889088;29;20063;-82
2023/04/06 04:16:55;;;;;;;0.80;0.80;;;;;;;3.50;78.22;99923.69;4884663;29;20513;-81
2023/04/06 04:19:22;;;;;;;0.80;0.80;;;;;;;3.53;78.02;99921.50;4885478;29;20060;-81
2023/04/06 04:21:49;;;;;;;0.80;0.80;;;;;;;3.68;77.74;99937.59;4887642;29;20139;-82
2023/04/06 04:24:23;;;;;;;0.80;0.80;;;;;;;3.73;77.54;99935.22;4874453;29;20442;-81
2023/04/06 04:26:50;;;;;;;0.80;0.80;;;;;;;3.79;77.32;99939.84;4874893;29;20151;-82
2023/04/06 04:29:21;;;;;;;0.90;0.90;;;;;;;3.88;77.11;99932.63;4885986;29;20079;-81
2023/04/06 04:31:50;;;;;;;0.73;0.73;;;;;;;3.97;76.48;99930.69;4851631;29;20055;-81
2023/04/06 04:34:20;;;;;;;0.80;0.80;;;;;;;4.04;76.09;99920.97;4891806;29;20063;-81
2023/04/06 04:36:47;;;;;;;0.90;0.90;;;;;;;4.10;75.78;99930.91;4874861;29;20598;-82
2023/04/06 04:39:24;;;;;;;0.80;0.80;;;;;;;4.19;75.40;99924.50;4874627;29;20439;-82
2023/04/06 04:42:02;;;;;;;0.80;0.80;;;;;;;4.26;74.94;99922.78;4875268;29;20060;-81
2023/04/06 04:44:31;;;;;;;0.90;0.90;;;;;;;4.36;74.23;99925.19;4863866;29;20147;-80
2023/04/06 04:47:00;;;;;;;0.80;0.80;;;;;;;4.39;73.97;99921.34;4873703;29;20053;-81
2023/04/06 04:49:43;;;;;;;0.70;0.70;;;;;;;4.41;73.81;99922.81;4874212;29;20119;-83
2023/04/06 04:52:21;;;;;;;0.80;0.80;;;;;;;4.48;73.43;99918.41;4870777;29;20652;-82
2023/04/06 04:54:57;;;;;;;0.80;0.80;;;;;;;4.63;73.09;99930.94;4889923;29;20139;-80
2023/04/06 04:57:29;;;;;;;0.90;0.90;;;;;;;4.70;72.76;99932.69;4887594;29;20521;-80
2023/04/06 04:59:57;;;;;;;0.80;0.80;;;;;;;4.74;72.13;99925.97;4874460;29;20083;-81
2023/04/06 05:02:24;;;;;;;0.90;0.90;;;;;;;4.76;71.99;99931.13;4889365;29;20080;-81
2023/04/06 05:05:08;;;;;;;0.80;0.80;;;;;;;4.89;71.78;99931.31;4871418;29;20532;-81
2023/04/06 05:07:39;;;;;;;0.90;0.90;;;;;;;5.00;71.34;99924.66;4877720;29;20048;-81
2023/04/06 05:10:11;;;;;;;0.90;0.90;;;;;;;4.98;70.88;99918.66;4862648;29;20049;-82
2023/04/06 05:12:49;;;;;;;0.80;0.80;;;;;;;5.11;70.30;99928.72;4871372;29;20089;-80
2023/04/06 05:15:19;;;;;;;0.90;0.90;;;;;;;5.15;70.11;99932.69;4887923;29;20051;-81
2023/04/06 05:17:50;;;;;;;0.80;0.80;;;;;;;5.19;70.12;99934.81;4891554;29;20104;-80
2023/04/06 05:20:22;;;;;;;0.80;0.80;;;;;;;5.30;69.60;99933.50;4904470;29;20572;-80
2023/04/06 05:22:51;;;;;;;0.90;0.90;;;;;;;5.29;69.38;99936.34;4885373;29;20060;-81
2023/04/06 05:25:18;;;;;;;0.80;0.80;;;;;;;5.37;69.12;99939.75;4903533;29;20056;-80
2023/04/06 05:27:52;;;;;;;0.80;0.80;;;;;;;5.47;68.93;99935.94;4868119;29;20068;-80
2023/04/06 05:30:30;;;;;;;0.90;0.90;;;;;;;5.58;69.10;99943.50;4879817;29;20044;-82
2023/04/06 05:33:01;;;;;;;0.88;0.88;;;;;;;5.63;68.34;99933.88;4865131;29;20048;-80
2023/04/06 05:35:38;;;;;;;0.90;0.90;;;;;;;5.67;67.52;99936.97;4883030;29;20064;-81
2023/04/06 05:38:10;;;;;;;0.90;0.90;;;;;;;5.72;67.52;99947.97;4897014;29;20073;-82
2023/04/06 05:40:40;;;;;;;0.80;0.80;;;;;;;5.81;67.36;99940.63;4896667;29;20421;-80
2023/04/06 05:43:11;;;;;;;0.80;0.80;;;;;;;5.94;67.08;99935.44;4881027;29;20060;-81
2023/04/06 05:45:44;;;;;;;0.80;0.80;;;;;;;5.96;66.43;99929.91;4880796;29;20053;-80
2023/04/06 05:48:11;;;;;;;0.80;0.80;;;;;;;6.01;66.01;99936.34;4896932;29;20105;-81
2023/04/06 05:50:39;;;;;;;0.80;0.80;;;;;;;6.08;65.88;99944.44;4881326;29;20526;-79
2023/04/06 05:53:06;;;;;;;0.90;0.90;;;;;;;6.08;65.65;99945.25;4896706;29;20473;-80
2023/04/06 05:55:39;;;;;;;0.80;0.80;;;;;;;6.23;65.40;99939.00;4880880;29;20054;-81
2023/04/06 05:58:17;;;;;;;0.80;0.80;;;;;;;6.41;65.15;99947.41;4880889;29;20055;-79
2023/04/06 06:00:45;;;;;;;0.82;0.82;;;;;;;6.55;64.58;99942.94;4897293;29;20100;-80
2023/04/06 06:03:18;;;;;;;0.80;0.80;;;;;;;6.69;64.40;99949.25;4895883;29;20048;-79
2023/04/06 06:06:03;;;;;;;0.80;0.80;;;;;;;6.85;63.84;99940.88;4896216;29;20059;-81
2023/04/06 06:08:46;;;;;;;;;;;;;;;7.08;63.25;99939.78;4882669;29;20166;-81
2023/04/06 06:11:53;;;;;;;0.88;0.88;;;;;;;7.13;62.42;99940.00;4862049;29;20486;-80
2023/04/06 06:14:24;;;;;;;0.80;0.80;;;;;;;7.14;62.46;99938.97;4883835;29;20105;-80
2023/04/06 06:16:52;;;;;;;0.90;0.90;;;;;;;7.15;61.66;99929.91;4895576;29;20103;-80
2023/04/06 06:19:20;;;;;;;0.80;0.80;;;;;;;7.32;61.41;99939.28;4877859;29;20073;-81
2023/04/06 06:21:53;;;;;;;0.80;0.80;;;;;;;7.29;61.03;99928.94;4862881;29;20108;-81
2023/04/06 06:24:39;;;;;;;0.80;0.80;;;;;;;7.55;61.12;99936.25;4896730;29;20052;-81
2023/04/06 06:27:07;;;;;;;0.80;0.80;;;;;;;7.68;60.61;99924.72;4871154;29;20049;-79
2023/04/06 06:29:43;;;;;;;0.80;0.80;;;;;;;7.77;60.12;99920.81;4891164;29;20052;-78
2023/04/06 06:32:14;;;;;;;0.70;0.70;;;;;;;7.81;59.57;99916.66;4877871;29;20053;-78
2023/04/06 06:34:45;;;;;;;0.80;0.80;;;;;;;7.96;59.50;99923.72;4879778;29;20061;-80
2023/04/06 06:37:13;;;;;;;0.80;0.80;;;;;;;7.93;58.90;99921.47;4878446;29;20048;-79
2023/04/06 06:40:06;;;;;;;0.80;0.80;;;;;;;7.96;58.74;99915.66;4845716;29;20079;-80
2023/04/06 06:42:41;;;;;;;0.80;0.80;;;;;;;8.17;58.93;99934.28;4849044;29;20057;-80
2023/04/06 06:45:20;;;;;;;0.80;0.80;;;;;;;8.23;58.22;99914.66;4891544;29;20101;-82
2023/04/06 06:47:48;;;;;;;0.70;0.70;;;;;;;8.34;57.84;99917.75;4891572;29;20053;-80
2023/04/06 06:50:19;;;;;;;0.73;0.73;;;;;;;8.35;57.90;99919.41;4897289;29;20079;-81
2023/04/06 06:52:47;;;;;;;0.80;0.80;;;;;;;8.50;57.96;99916.53;4896249;29;20128;-81
2023/04/06 06:55:35;;;;;;;0.80;0.80;;;;;;;8.53;57.65;99919.59;4882982;29;20510;-80
2023/04/06 06:58:03;;;;;;;0.70;0.70;;;;;;;8.70;56.97;99908.41;4872719;29;20155;-81
2023/04/06 07:00:30;;;;;;;0.80;0.80;;;;;;;8.82;56.51;99925.59;4893906;29;20071;-79
2023/04/06 07:03:00;;;;;;;0.70;0.70;;;;;;;8.83;56.24;99921.84;4894193;29;20053;-83
2023/04/06 07:05:28;;;;;;;0.70;0.70;;;;;;;8.81;55.84;99919.38;4886708;29;20059;-82
2023/04/06 07:07:57;;;;;;;0.70;0.70;;;;;;;8.90;55.34;99923.47;4873561;29;20513;-80
2023/04/06 07:10:43;;;;;;;0.80;0.80;;;;;;;9.01;55.08;99929.25;4875303;29;20052;-82
2023/04/06 07:13:18;;;;;;;0.70;0.70;;;;;;;9.12;55.09;99928.59;4895435;29;20059;-81
2023/04/06 07:15:45;;;;;;;0.70;0.70;;;;;;;9.20;54.89;99924.84;4857465;29;20212;-81
2023/04/06 07:18:13;;;;;;;0.70;0.70;;;;;;;9.30;54.70;99927.91;4893353;29;20056;-80
2023/04/06 07:20:40;;;;;;;0.70;0.70;;;;;;;9.45;54.47;99939.25;4878771;29;20055;-82
2023/04/06 07:23:08;;;;;;;0.82;0.82;;;;;;;9.48;53.63;99930.72;4895496;29;20084;-81
2023/04/06 07:25:35;;;;;;;0.77;0.77;;;;;;;9.49;53.43;99924.28;4896185;29;20652;-80
2023/04/06 07:28:03;;;;;;;0.90;0.90;;;;;;;9.54;53.21;99927.19;4898798;29;20056;-80
2023/04/06 07:30:31;;;;;;;0.80;0.80;;;;;;;9.68;52.28;99933.31;4864507;29;20076;-80
2023/04/06 07:33:01;;;;;;;0.80;0.80;;;;;;;9.73;52.45;99932.69;4894319;29;20556;-82
2023/04/06 07:35:30;;;;;;;0.80;0.80;;;;;;;9.88;51.90;99932.38;4887769;29;20447;-81
2023/04/06 07:38:00;;;;;;;0.80;0.80;;;;;;;10.02;51.63;99930.41;4893835;29;20108;-80
2023/04/06 07:40:28;;;;;;;0.85;0.85;;;;;;;10.13;51.54;99932.44;4892000;29;20049;-80
2023/04/06 07:42:57;;;;;;;0.90;0.90;;;;;;;10.26;50.91;99929.63;4894386;29;20393;-81
2023/04/06 07:45:24;;;;;;;0.80;0.80;;;;;;;10.39;50.82;99934.94;4897071;29;20401;-82
2023/04/06 07:47:55;;;;;;;0.70;0.70;;;;;;;10.51;50.24;99936.94;4878842;29;20052;-80
2023/04/06 07:50:27;;;;;;;0.90;0.90;;;;;;;10.56;50.19;99937.09;4878944;29;20063;-80
2023/04/06 07:52:55;;;;;;;0.80;0.80;;;;;;;10.78;49.96;99943.69;4880214;29;20048;-81
2023/04/06 07:55:22;;;;;;;0.80;0.80;;;;;;;10.98;49.21;99931.88;4896495;29;20147;-82
2023/04/06 07:57:52;;;;;;;0.80;0.80;;;;;;;11.12;48.43;99935.28;4895455;29;20049;-81
2023/04/06 08:00:20;;;;;;;0.80;0.80;;;;;;;11.22;48.29;99930.16;4895342;29;20056;-81
2023/04/06 08:02:50;;;;;;;0.80;0.80;;;;;;;11.27;47.95;99931.13;4896112;29;20121;-80
2023/04/06 08:05:20;;;;;;;0.80;0.80;;;;;;;11.48;47.55;99937.94;4895548;29;20053;-80
2023/04/06 08:07:47;;;;;;;0.80;0.80;;;;;;;11.67;46.81;99927.06;4895632;29;20496;-81
2023/04/06 08:10:17;;;;;;;0.90;0.90;;;;;;;11.96;46.24;99928.16;4878342;29;20084;-81
2023/04/06 08:12:46;;;;;;;0.90;0.90;;;;;;;11.99;45.63;99924.97;4893531;29;20089;-81
2023/04/06 08:15:14;;;;;;;0.80;0.80;;;;;;;12.16;45.38;99916.22;4878367;29;20535;-82
2023/04/06 08:17:41;;;;;;;0.80;0.80;;;;;;;12.42;45.08;99914.94;4895536;29;20048;-80
2023/04/06 08:20:08;;;;;;;0.80;0.80;;;;;;;12.73;44.43;99921.88;4879377;29;20473;-81
2023/04/06 08:22:39;;;;;;;0.80;0.80;;;;;;;12.97;43.92;99933.53;4878927;29;20053;-81
2023/04/06 08:25:09;;;;;;;0.80;0.80;;;;;;;13.14;43.47;99929.03;4895644;29;20056;-80
2023/04/06 08:27:36;;;;;;;0.90;0.90;;;;;;;13.42;42.97;99931.00;4878775;29;20056;-82
2023/04/06 08:30:03;;;;;;;0.77;0.77;;;;;;;13.58;42.42;99929.41;4894310;29;20044;-80
2023/04/06 08:32:33;;;;;;;0.80;0.80;;;;;;;13.67;42.27;99921.69;4894386;29;20433;-81
2023/04/06 08:35:01;;;;;;;0.90;0.90;;;;;;;13.75;41.49;99912.34;4893803;29;20060;-80
2023/04/06 08:37:31;;;;;;;0.80;0.80;;;;;;;14.14;41.05;99923.34;4895172;29;20059;-81
2023/04/06 08:39:58;;;;;;;0.80;0.80;;;;;;;14.46;40.71;99918.19;4894867;29;20052;-81
2023/04/06 08:42:26;;;;;;;0.80;0.80;;;;;;;14.70;39.79;99919.66;4893815;29;20060;-81
2023/04/06 08:44:53;;;;;;;0.80;0.80;;;;;;;14.89;40.01;99909.34;4878777;29;20084;-81
2023/04/06 08:47:54;;;;;;;0.80;0.80;;;;;;;15.06;39.62;99914.72;4874419;29;20056;-81
2023/04/06 08:50:26;;;;;;;0.80;0.80;;;;;;;15.43;38.76;99908.66;4843512;29;20061;-81
2023/04/06 08:52:56;;;;;;;0.80;0.80;;;;;;;15.79;37.72;99911.78;4828267;29;21128;-82
2023/04/06 08:55:23;;;;;;;0.70;0.70;;;;;;;15.71;37.59;99915.78;4859152;29;20076;-81
2023/04/06 08:57:54;;;;;;;0.70;0.70;;;;;;;15.89;37.28;99911.06;4869829;29;20497;-80
2023/04/06 09:00:28;;;;;;;0.70;0.70;;;;;;;15.98;36.81;99920.41;4869156;29;20502;-80
2023/04/06 09:02:57;;;;;;;0.90;0.90;;;;;;;15.67;37.02;99901.00;4862337;29;20064;-81
2023/04/06 09:05:25;;;;;;;0.80;0.80;;;;;;;15.85;36.72;99916.22;4877471;29;20073;-80
2023/04/06 09:07:53;;;;;;;0.70;0.70;;;;;;;16.03;36.22;99904.94;4877657;29;20057;-81
2023/04/06 09:10:20;;;;;;;0.73;0.73;;;;;;;16.20;35.86;99912.16;4877346;29;20057;-81
2023/04/06 09:12:48;;;;;;;0.80;0.80;;;;;;;16.52;35.55;99911.31;4861636;29;20048;-81
2023/04/06 09:15:25;;;;;;;0.80;0.80;;;;;;;17.01;34.91;99908.38;4877072;29;20089;-81
2023/04/06 09:17:57;;;;;;;0.80;0.80;;;;;;;17.19;34.35;99904.38;4884133;29;20059;-82
2023/04/06 09:20:26;;;;;;;0.80;0.80;;;;;;;17.06;34.11;99905.66;4898821;29;20053;-81
2023/04/06 09:23:18;;;;;;;0.80;0.80;;;;;;;17.11;34.04;99909.25;4897360;29;20049;-81
2023/04/06 09:25:46;;;;;;;0.80;0.80;;;;;;;17.10;33.60;99904.06;4899784;29;20079;-81
2023/04/06 09:28:13;;;;;;;0.80;0.80;;;;;;;17.22;33.64;99914.78;4912741;29;20059;-80
2023/04/06 09:30:52;;;;;;;0.70;0.70;;;;;;;17.40;33.33;99908.81;4900648;29;20060;-80
2023/04/06 09:33:22;;;;;;;0.70;0.70;;;;;;;17.47;33.40;99901.22;4898835;29;20517;-81
2023/04/06 09:35:50;;;;;;;0.70;0.70;;;;;;;17.61;33.14;99904.25;4897760;29;20056;-80
2023/04/06 09:38:17;;;;;;;0.80;0.80;;;;;;;17.59;32.93;99908.34;4881612;29;20053;-82
2023/04/06 09:40:51;;;;;;;0.80;0.80;;;;;;;17.75;32.51;99897.19;4899668;29;20044;-81
2023/04/06 09:43:28;;;;;;;0.80;0.80;;;;;;;17.67;32.59;99905.91;4884374;29;20052;-81
2023/04/06 09:45:56;;;;;;;0.80;0.80;;;;;;;17.94;32.43;99904.88;4902851;29;20059;-81
2023/04/06 09:48:25;;;;;;;0.80;0.80;;;;;;;18.27;31.87;99903.53;4916618;29;20074;-80
2023/04/06 09:51:02;;;;;;;0.82;0.82;;;;;;;18.59;31.88;99900.50;4917354;29;20160;-80
2023/04/06 09:53:53;;;;;;;0.77;0.77;;;;;;;19.07;31.17;99891.13;4915881;29;20048;-80
2023/04/06 09:59:13;;;;;;;0.70;0.70;;;;;;;19.36;30.96;99905.78;4902982;29;20052;-80
2023/04/06 10:01:40;;;;;;;0.80;0.80;;;;;;;19.40;30.54;99898.66;4916431;29;20143;-80
2023/04/06 10:04:26;;;;;;;0.80;0.80;;;;;;;19.59;30.55;99900.72;4889818;29;20048;-80
2023/04/06 10:06:55;;;;;;;0.70;0.70;;;;;;;19.58;29.91;99904.59;4893695;29;20048;-81
2023/04/06 10:09:25;;;;;;;0.70;0.70;;;;;;;19.64;29.75;99897.97;4895529;29;20109;-79
2023/04/06 10:12:12;;;;;;;0.70;0.70;;;;;;;19.64;30.11;99900.69;4882639;29;20059;-80
2023/04/06 10:17:44;;;;;;;0.70;0.70;;;;;;;20.56;29.04;99892.66;4881594;29;20479;-80
2023/04/06 10:20:18;;;;;;;0.70;0.70;;;;;;;19.85;29.24;99899.53;4556493;29;10001243;-80
2023/04/06 10:23:24;;;;;;;0.70;0.70;;;;;;;20.01;29.41;99902.16;4894412;29;20704;-81
2023/04/06 10:25:59;;;;;;;0.77;0.77;;;;;;;20.01;29.23;99902.97;4861359;29;20079;-81
2023/04/06 10:28:32;;;;;;;0.80;0.80;;;;;;;20.18;29.08;99899.81;4875181;29;20598;-81
2023/04/06 10:31:23;;;;;;;0.70;0.70;;;;;;;20.81;28.63;99893.47;4892971;29;20084;-81
2023/04/06 10:33:58;;;;;;;0.73;0.73;;;;;;;21.10;28.32;99900.88;4876715;29;20419;-81
2023/04/06 10:36:32;;;;;;;0.70;0.70;;;;;;;21.04;27.96;99896.53;4872935;29;20049;-80
2023/04/06 10:39:03;;;;;;;0.70;0.70;;;;;;;21.56;27.46;99898.38;4890986;29;20164;-81
2023/04/06 10:41:35;;;;;;;0.60;0.60;;;;;;;22.07;26.94;99885.81;4876488;29;20640;-79
2023/04/06 10:44:08;;;;;;;0.60;0.60;;;;;;;22.63;26.20;99887.59;4875121;29;20633;-80
2023/04/06 10:46:35;;;;;;;0.70;0.70;;;;;;;22.40;26.27;99889.41;4891793;29;20515;-81
2023/04/06 10:49:12;;;;;;;0.60;0.60;;;;;;;22.15;26.45;99892.53;4892595;29;20053;-81
2023/04/06 10:51:40;;;;;;;0.60;0.60;;;;;;;22.19;26.82;99885.34;4877014;29;20052;-80
2023/04/06 10:54:07;;;;;;;0.65;0.65;;;;;;;22.24;26.43;99885.28;4892683;29;20493;-82
2023/04/06 10:56:38;;;;;;;0.70;0.70;;;;;;;21.95;26.79;99875.28;4867983;29;20049;-81
2023/04/06 10:59:06;;;;;;;0.60;0.60;;;;;;;22.25;26.31;99878.66;4898320;29;20451;-82
2023/04/06 11:01:34;;;;;;;0.60;0.60;;;;;;;22.30;26.30;99873.06;4894068;29;20056;-80
2023/04/06 11:04:01;;;;;;;0.60;0.60;;;;;;;22.83;25.54;99875.41;4894428;29;20053;-82
2023/04/06 11:06:30;;;;;;;0.60;0.60;;;;;;;22.90;25.28;99873.06;4893541;29;20052;-82
2023/04/06 11:08:58;;;;;;;0.60;0.60;;;;;;;22.94;25.27;99879.59;4869566;29;20440;-81
2023/04/06 11:11:26;;;;;;;0.60;0.60;;;;;;;22.78;25.74;99883.75;4895077;29;20105;-81
2023/04/06 11:14:06;;;;;;;0.60;0.60;;;;;;;22.91;24.79;99877.47;4865338;29;20052;-82
2023/04/06 11:16:33;;;;;;;0.60;0.60;;;;;;;22.83;24.65;99885.59;4877402;29;20171;-82
2023/04/06 11:19:02;;;;;;;0.60;0.60;;;;;;;22.44;25.38;99884.94;4884480;29;20048;-81
2023/04/06 11:21:41;;;;;;;0.60;0.60;;;;;;;22.48;25.22;99882.38;4876984;29;20417;-81
2023/04/06 11:24:26;;;;;;;0.60;0.60;;;;;;;22.38;24.93;99880.63;4894350;29;20166;-82
2023/04/06 11:27:04;;;;;;;0.70;0.70;;;;;;;22.22;25.01;99882.84;4892160;29;20144;-81
2023/04/06 11:29:31;;;;;;;0.60;0.60;;;;;;;22.43;24.74;99874.22;4878879;29;20055;-82
2023/04/06 11:32:06;;;;;;;0.60;0.60;;;;;;;22.75;24.77;99861.56;4893020;29;20491;-81
2023/04/06 11:34:36;;;;;;;0.60;0.60;;;;;;;23.39;24.01;99865.19;4894606;29;20072;-83
2023/04/06 11:37:11;;;;;;;0.60;0.60;;;;;;;23.96;23.49;99865.56;4878895;29;20049;-81
2023/04/06 11:39:57;;;;;;;;;;;;;;;24.09;23.53;99865.84;4895511;29;20048;-82
2023/04/06 11:42:29;;;;;;;0.57;0.57;;;;;;;23.45;23.68;99863.97;4895909;29;20300;-82
2023/04/06 11:44:59;;;;;;;0.60;0.60;;;;;;;23.19;23.86;99882.97;4870328;29;20053;-81
2023/04/06 11:47:37;;;;;;;0.60;0.60;;;;;;;23.07;23.71;99871.69;4849801;29;20060;-79
2023/04/06 11:51:01;;;;;;;0.60;0.60;;;;;;;22.91;23.95;99858.19;4859054;29;20062;-81
2023/04/06 11:53:57;;;;;;;0.60;0.60;;;;;;;23.07;23.76;99863.44;4813968;29;20060;-81
2023/04/06 11:57:33;;;;;;;0.60;0.60;;;;;;;23.00;23.63;99858.31;4767586;29;20062;-80
2023/04/06 12:00:28;;;;;;;0.60;0.60;;;;;;;23.04;23.31;99864.00;4758054;30;20068;-81
2023/04/06 12:02:59;;;;;;;0.60;0.60;;;;;;;23.48;22.58;99851.53;4761218;30;20161;-81
2023/04/06 12:05:56;;;;;;;0.68;0.68;;;;;;;23.87;22.33;99848.16;4780354;29;20060;-81
2023/04/06 12:08:44;;;;;;;0.60;0.60;;;;;;;24.25;22.23;99852.47;4746507;30;20060;-81
2023/04/06 12:11:45;;;;;;;0.57;0.57;;;;;;;24.11;22.07;99852.56;4735593;30;20308;-81